• Join FlightAware (Why Join?)
  • Login
  • US Flag 
05:28AM EDT


 

Airport Tracker/Info


-or-


 

Live Flight TrackerFlight Track Log ✈ DAL969 ✈ 17-May-2012 ✈ KTPA - KATL

Flight Track Log - Related Links

Times and Time Zones

All times are in EDT time to prevent confusion due to time zone crossing. See the DAL969 flight status page for this flight to view local times or setup timezone preferences in your user account.

Time Position Orientation Groundspeed Altitude Reporting Facility
EDT Latitude Longitude Course Direction KTS MPH feet Rate Location/Type
08:39AM 27.9667 -82.5500 304° West 179 206 600  Level Tampa TRACON
08:44AM 28.0600 -82.7092 349° North 326 375 13,200 2,460 Climbing Jacksonville Center
08:45AM 28.1686 -82.7325 349° North 364 419 15,900 2,580 Climbing Jacksonville Center
08:46AM 28.2814 -82.7583 349° North 392 451 18,400 2,280 Climbing Jacksonville Center
08:47AM 28.4003 -82.7839 351° North 412 474 20,600 2,100 Climbing Jacksonville Center
08:48AM 28.5233 -82.8053 349° North 434 499 22,700 2,040 Climbing Jacksonville Center
08:49AM 28.6486 -82.8333 336° Northwest 446 513 24,700 1,860 Climbing Jacksonville Center
08:50AM 28.7633 -82.8903 332° Northwest 446 513 26,500 1,620 Climbing Jacksonville Center
08:51AM 28.8761 -82.9589 331° Northwest 452 520 28,000 1,500 Climbing Jacksonville Center
08:52AM 28.9908 -83.0303 332° Northwest 459 528 29,600 1,800 Climbing Jacksonville Center
08:53AM 29.1078 -83.1017 332° Northwest 465 535 31,600 1,200 Climbing Jacksonville Center
08:54AM 29.2203 -83.1708 333° Northwest 465 535 32,000 180 Climbing Jacksonville Center
08:55AM 29.3350 -83.2381 331° Northwest 465 535 32,000  Level Jacksonville Center
08:56AM 29.4475 -83.3100 333° Northwest 460 529 32,000  Level Jacksonville Center
08:57AM 29.5600 -83.3772 332° Northwest 455 524 32,000  Level Jacksonville Center
08:58AM 29.6725 -83.4447 332° Northwest 455 524 32,000  Level Jacksonville Center
08:59AM 29.7847 -83.5147 334° Northwest 455 524 32,000  Level Jacksonville Center
09:00AM 29.8992 -83.5803 331° Northwest 455 524 32,000  Level Jacksonville Center
09:01AM 30.0219 -83.6578 333° Northwest 455 524 32,000  Level Jacksonville Center
09:02AM 30.1364 -83.7261 332° Northwest 455 524 32,000  Level Jacksonville Center
09:03AM 30.2508 -83.7967 331° Northwest 455 524 32,000  Level Jacksonville Center
09:04AM 30.3631 -83.8675 332° Northwest 455 524 32,000  Level Jacksonville Center
09:05AM 30.4772 -83.9386 333° Northwest 455 524 32,000  Level Jacksonville Center
09:06AM 30.5686 -83.9928 332° Northwest 455 524 32,000  Level Jacksonville Center
09:07AM 30.6933 -84.0692 333° Northwest 455 524 32,000  Level Jacksonville Center
09:08AM 30.8075 -84.1383 330° Northwest 455 524 32,000  Level Jacksonville Center
09:09AM 30.9194 -84.2122 333° Northwest 455 524 32,000  Level Jacksonville Center
09:10AM 31.0314 -84.2794 331° Northwest 455 524 32,000  Level Jacksonville Center
09:11AM 31.1475 -84.3539 332° Northwest 455 524 32,000  Level Jacksonville Center
09:12AM 31.2594 -84.4236 331° Northwest 460 529 32,000  Level Jacksonville Center
09:14AM 31.5117 -84.5844 332° Northwest 447 514 32,000  Level Atlanta Center
09:15AM 31.6242 -84.6536 332° Northwest 454 522 32,000 -420 Level Atlanta Center
09:16AM 31.7364 -84.7250 333° Northwest 454 522 31,200 -840 Descending Atlanta Center
09:17AM 31.8508 -84.7944 341° North 454 522 30,400 -840 Descending Atlanta Center
09:18AM 31.9714 -84.8444 345° North 454 522 29,600 -780 Descending Atlanta Center
09:19AM 32.0964 -84.8847 344° North 454 522 28,900 -600 Descending Atlanta Center
09:20AM 32.2214 -84.9275 346° North 459 528 28,500 -480 Descending Atlanta Center
09:21AM 32.3317 -84.9606 344° North 458 527 28,000 -1,020 Descending Atlanta Center
09:22AM 32.4650 -85.0064 345° North 451 519 26,500 -2,040 Descending Atlanta Center
09:23AM 32.5858 -85.0447 343° North 446 513 24,000 2,700 Descending Atlanta Center
09:24AM 32.6961 -85.0856 343° North 440 506 32,000 -2,580 Climbing Atlanta Center
09:25AM 32.8022 -85.1236 345° North 414 476 18,900 -7,740 Descending Atlanta Center
09:26AM 32.9083 -85.1572 North 401 461 16,600 -2,400 Descending Atlanta Center
09:27AM 33.0086 -85.1436 25° Northeast 365 420 14,200 -2,040 Descending Atlanta Center
09:28AM 33.0989 -85.0928 31° Northeast 359 413 12,600 -1,080 Descending Atlanta Center
09:29AM 33.1767 -85.0364 38° Northeast 329 379 12,100 -600 Descending Atlanta Center
09:30AM 33.2333 -84.9825 27° Northeast 307 353 11,500 -1,140 Descending Atlanta Center
09:31AM 33.3047 -84.9386 19° North 285 328 9,900 -1,560 Descending Atlanta Center
09:32AM 33.3800 -84.9069 North 272 313 8,400 -960 Descending Atlanta Center
09:33AM 33.4572 -84.8953 North 277 319 8,000 -300 Descending Atlanta Center
09:34AM 33.5367 -84.8861 11° North 277 319 7,900 -540 Descending Atlanta Center
09:35AM 33.6078 -84.8694 76° East 267 307 7,000 -600 Descending Atlanta Center
09:37AM 33.6333 -84.7500 90° East 225 259 6,500 -720 Descending Atlanta TRACON
09:38AM 33.6333 -84.6833 90° East 214 246 5,300 -1,380 Descending Atlanta TRACON
09:39AM 33.6333 -84.6167 90° East 183 211 3,800 -1,320 Descending Atlanta TRACON
09:39AM 33.6333 -84.5667 90° East 182 209 2,900 -960 Descending Atlanta TRACON
09:40AM 33.6333 -84.5000 90° East 154 177 2,000 -780 Descending Atlanta TRACON
09:42AM 33.6333 -84.4500 90° East 129 148 1,300 -660 Descending Atlanta TRACON
09:49AM 33.6333 -84.4167 90° East  Level FlightAware Approximate